createdAt,value
2019-05-07T00:02:42.897Z,4.23
2019-05-07T00:05:59.756Z,4.27
2019-05-07T00:09:16.577Z,4.22
2019-05-07T00:12:33.023Z,4.19
2019-05-07T00:15:49.737Z,4.19
2019-05-07T00:19:06.586Z,4.12
2019-05-07T00:22:23.262Z,4.13
2019-05-07T00:25:41.973Z,4.11
2019-05-07T00:28:58.383Z,4.09
2019-05-07T00:32:15.123Z,4.11
2019-05-07T00:35:36.620Z,4.07
2019-05-07T00:39:12.423Z,4.01
2019-05-07T00:42:55.994Z,4.02
2019-05-07T00:46:09.625Z,4.01
2019-05-07T00:49:17.624Z,3.98
2019-05-07T00:52:24.935Z,3.96
2019-05-07T00:55:32.691Z,4.03
2019-05-07T00:58:39.907Z,4.01
2019-05-07T01:01:47.428Z,4.02
2019-05-07T01:04:55.004Z,4.01
2019-05-07T01:08:13.172Z,4.02
2019-05-07T01:11:29.797Z,4.01
2019-05-07T01:14:46.541Z,3.96
2019-05-07T01:18:03.166Z,3.90
2019-05-07T01:21:19.935Z,3.91
2019-05-07T01:24:36.510Z,3.88
2019-05-07T01:27:55.980Z,3.85
2019-05-07T01:31:02.253Z,3.78
2019-05-07T01:34:32.357Z,3.74
2019-05-07T01:37:40.092Z,3.71
2019-05-07T01:40:48.995Z,3.69
2019-05-07T01:44:05.816Z,3.64
2019-05-07T01:47:23.680Z,3.65
2019-05-07T01:50:42.786Z,3.60
2019-05-07T01:53:59.055Z,3.56
2019-05-07T01:57:15.759Z,3.55
2019-05-07T02:00:32.694Z,3.52
2019-05-07T02:03:55.375Z,3.52
2019-05-07T02:07:33.662Z,3.46
2019-05-07T02:10:43.775Z,3.46
2019-05-07T02:14:10.328Z,3.48
2019-05-07T02:17:26.984Z,3.47
2019-05-07T02:20:43.658Z,3.52
2019-05-07T02:24:00.491Z,3.42
2019-05-07T02:27:17.188Z,3.43
2019-05-07T02:30:24.312Z,3.32
2019-05-07T02:33:43.417Z,3.35
2019-05-07T02:36:59.403Z,3.35
2019-05-07T02:40:24.369Z,3.39
2019-05-07T02:43:33.760Z,3.33
2019-05-07T02:46:49.236Z,3.34
2019-05-07T02:50:34.152Z,3.41
2019-05-07T02:53:48.856Z,3.36
2019-05-07T02:56:56.326Z,3.34
2019-05-07T03:00:04.886Z,3.35
2019-05-07T03:03:13.723Z,3.36
2019-05-07T03:06:23.312Z,3.32
2019-05-07T03:09:42.802Z,3.39
2019-05-07T03:12:58.475Z,3.31
2019-05-07T03:16:14.934Z,3.33
2019-05-07T03:19:33.227Z,3.31
2019-05-07T03:22:53.578Z,3.27
2019-05-07T03:26:15.205Z,3.24
2019-05-07T03:29:23.939Z,3.18
2019-05-07T03:32:48.220Z,3.19
2019-05-07T03:35:57.303Z,3.13
2019-05-07T03:39:05.317Z,3.13
2019-05-07T03:42:13.429Z,3.13
2019-05-07T03:45:54.038Z,3.10
2019-05-07T03:49:27.213Z,3.10
2019-05-07T03:52:34.814Z,3.07
2019-05-07T03:55:53.705Z,3.12
2019-05-07T03:59:09.564Z,3.11
2019-05-07T04:02:26.346Z,3.16
2019-05-07T04:05:34.114Z,3.08
2019-05-07T04:08:43.190Z,3.08
2019-05-07T04:11:52.840Z,3.09
2019-05-07T04:14:59.083Z,3.10
2019-05-07T04:18:07.435Z,3.11
2019-05-07T04:21:23.883Z,3.19
2019-05-07T04:24:47.923Z,3.18
2019-05-07T04:28:04.818Z,3.19
2019-05-07T04:31:14.091Z,3.15
2019-05-07T04:34:40.194Z,3.18
2019-05-07T04:37:47.740Z,3.18
2019-05-07T04:40:55.579Z,3.18
2019-05-07T04:44:03.774Z,3.20
2019-05-07T04:47:09.605Z,3.24
2019-05-07T04:50:39.343Z,3.27
2019-05-07T04:53:54.071Z,3.31
2019-05-07T04:57:25.496Z,3.32
2019-05-07T05:00:43.083Z,3.40
2019-05-07T05:03:53.223Z,3.31
2019-05-07T05:07:09.021Z,3.36
2019-05-07T05:10:25.679Z,3.44
2019-05-07T05:13:44.541Z,3.47
2019-05-07T05:17:02.049Z,3.52
2019-05-07T05:20:10.007Z,3.64
2019-05-07T05:23:32.292Z,3.73
2019-05-07T05:26:39.319Z,3.72
2019-05-07T05:29:46.561Z,3.77
2019-05-07T05:32:53.991Z,3.87
2019-05-07T05:36:03.088Z,3.94
2019-05-07T05:39:22.331Z,4.15
2019-05-07T05:42:43.725Z,4.27
2019-05-07T05:45:53.023Z,4.27
2019-05-07T05:49:02.638Z,4.31
2019-05-07T05:52:33.415Z,4.47
2019-05-07T05:56:02.261Z,4.57
2019-05-07T05:59:37.129Z,4.55
2019-05-07T06:02:53.267Z,4.67
2019-05-07T06:06:21.822Z,4.78
2019-05-07T06:09:42.250Z,4.92
2019-05-07T06:12:58.548Z,5.09
2019-05-07T06:16:12.432Z,5.24
2019-05-07T06:19:34.356Z,5.37
2019-05-07T06:23:33.231Z,5.58
2019-05-07T06:26:42.555Z,5.63
2019-05-07T06:30:02.070Z,5.82
2019-05-07T06:33:08.379Z,5.91
2019-05-07T06:36:15.740Z,6.04
2019-05-07T06:39:27.083Z,6.15
2019-05-07T06:43:04.000Z,6.40
2019-05-07T06:46:12.582Z,6.50
2019-05-07T06:49:22.163Z,6.67
2019-05-07T06:52:29.244Z,6.77
2019-05-07T06:55:46.115Z,6.95
2019-05-07T06:59:07.610Z,7.08
2019-05-07T07:02:32.891Z,7.14
2019-05-07T07:06:02.726Z,7.27
2019-05-07T07:09:22.243Z,7.37
2019-05-07T07:12:30.203Z,7.55
2019-05-07T07:15:37.517Z,7.72
2019-05-07T07:18:51.834Z,7.85
2019-05-07T07:22:02.438Z,8.00
2019-05-07T07:25:11.936Z,8.10
2019-05-07T07:28:19.317Z,8.19
2019-05-07T07:31:43.228Z,8.25
2019-05-07T07:34:53.211Z,8.43
2019-05-07T07:38:27.745Z,8.60
2019-05-07T07:41:42.170Z,8.67
2019-05-07T07:44:51.947Z,8.66
2019-05-07T07:47:59.304Z,8.70
2019-05-07T07:51:06.720Z,8.82
2019-05-07T07:54:14.126Z,8.94
2019-05-07T07:57:37.794Z,9.03
2019-05-07T08:01:07.836Z,9.18
2019-05-07T08:04:15.567Z,9.24
2019-05-07T08:07:23.048Z,9.25
2019-05-07T08:10:32.493Z,9.37
2019-05-07T08:13:57.921Z,9.40
2019-05-07T08:17:14.545Z,9.32
2019-05-07T08:20:32.593Z,9.34
2019-05-07T08:34:56.899Z,9.71
2019-05-07T08:38:04.260Z,9.72
2019-05-07T08:41:12.028Z,9.80
2019-05-07T08:44:35.229Z,9.98
2019-05-07T08:48:13.396Z,10.18
2019-05-07T08:51:37.589Z,10.15
2019-05-07T08:54:44.964Z,10.15
2019-05-07T08:57:52.555Z,10.27
2019-05-07T09:00:59.879Z,10.23
2019-05-07T09:04:07.327Z,10.21
2019-05-07T09:07:24.157Z,10.37
2019-05-07T09:10:42.260Z,10.58
2019-05-07T09:13:59.308Z,10.71
2019-05-07T09:17:15.810Z,10.74
2019-05-07T09:20:23.384Z,10.87
2019-05-07T09:23:31.709Z,10.94
2019-05-07T09:26:47.406Z,11.19
2019-05-07T09:30:12.653Z,11.40
2019-05-07T09:33:44.498Z,11.42
2019-05-07T09:36:53.915Z,11.50
2019-05-07T09:40:02.810Z,11.58
2019-05-07T09:43:21.908Z,11.69
2019-05-07T09:46:38.092Z,11.83
2019-05-07T09:49:43.795Z,11.98
2019-05-07T09:53:02.299Z,12.27
2019-05-07T09:56:18.809Z,12.42
2019-05-07T09:59:35.439Z,12.37
2019-05-07T10:02:42.618Z,12.09
2019-05-07T10:05:59.413Z,12.13
2019-05-07T10:09:16.141Z,12.20
2019-05-07T10:12:54.751Z,12.13
2019-05-07T10:16:04.291Z,11.98
2019-05-07T10:19:28.630Z,12.06
2019-05-07T10:22:45.473Z,11.92
2019-05-07T10:26:08.162Z,11.90
2019-05-07T10:29:24.811Z,11.76
2019-05-07T10:32:42.293Z,11.85
2019-05-07T10:35:49.709Z,11.84
2019-05-07T10:38:55.377Z,11.68
2019-05-07T10:42:02.823Z,11.70
2019-05-07T10:45:19.160Z,11.74
2019-05-07T10:48:35.323Z,11.67
2019-05-07T10:51:55.756Z,11.93
2019-05-07T10:55:12.642Z,12.20
2019-05-07T10:58:29.277Z,12.35
2019-05-07T11:01:52.082Z,12.33
2019-05-07T11:04:59.626Z,12.38
2019-05-07T11:08:16.221Z,12.40
2019-05-07T11:11:22.989Z,12.38
2019-05-07T11:14:32.164Z,12.37
2019-05-07T11:17:54.223Z,12.28
2019-05-07T11:21:03.042Z,12.26
2019-05-07T11:24:11.977Z,12.12
2019-05-07T11:27:18.746Z,12.15
2019-05-07T11:30:35.502Z,12.08
2019-05-07T11:33:52.197Z,12.16
2019-05-07T11:37:09.131Z,12.09
2019-05-07T11:40:25.555Z,12.10
2019-05-07T11:44:02.808Z,12.14
2019-05-07T11:47:25.563Z,12.22
2019-05-07T11:50:38.108Z,12.30
2019-05-07T11:54:15.640Z,12.45
2019-05-07T11:57:22.941Z,12.45
2019-05-07T12:00:53.773Z,12.56
2019-05-07T12:04:02.022Z,12.58
2019-05-07T12:07:11.771Z,12.66
2019-05-07T12:10:18.721Z,12.66
2019-05-07T12:13:26.252Z,12.67
2019-05-07T12:16:42.992Z,12.69
2019-05-07T12:20:02.414Z,12.72
2019-05-07T12:23:11.995Z,12.68
2019-05-07T12:26:18.912Z,12.74
2019-05-07T12:29:25.819Z,12.79
2019-05-07T12:32:51.989Z,12.80
2019-05-07T12:35:59.361Z,12.80
2019-05-07T12:39:08.709Z,12.84
2019-05-07T12:42:15.071Z,12.84
2019-05-07T12:45:22.883Z,12.82
2019-05-07T12:48:39.770Z,12.90
2019-05-07T12:52:05.331Z,12.96
2019-05-07T12:55:32.398Z,12.98
2019-05-07T12:59:27.775Z,13.10
2019-05-07T13:03:06.876Z,13.18
2019-05-07T13:06:32.619Z,13.30
2019-05-07T13:09:40.059Z,13.37
2019-05-07T13:12:47.337Z,13.45
2019-05-07T13:16:10.160Z,13.58
2019-05-07T13:19:26.783Z,13.64
2019-05-07T13:22:32.672Z,13.68
2019-05-07T13:25:49.171Z,13.78
2019-05-07T13:29:07.763Z,13.88
2019-05-07T13:32:25.166Z,13.94
2019-05-07T13:35:32.625Z,13.94
2019-05-07T13:38:51.859Z,13.95
2019-05-07T13:42:12.982Z,13.94
2019-05-07T13:45:26.481Z,13.96
2019-05-07T13:48:33.986Z,13.93
2019-05-07T13:51:41.855Z,13.88
2019-05-07T13:54:48.425Z,13.83
2019-05-07T13:57:55.695Z,13.76
2019-05-07T14:01:23.616Z,13.75
2019-05-07T14:04:54.487Z,13.66
2019-05-07T14:08:14.207Z,13.63
2019-05-07T14:11:22.404Z,13.55
2019-05-07T14:14:39.089Z,13.57
2019-05-07T14:18:04.930Z,13.46
2019-05-07T14:21:21.924Z,13.35
2019-05-07T14:24:29.577Z,13.32
2019-05-07T14:27:35.319Z,13.31
2019-05-07T14:30:42.085Z,13.29
2019-05-07T14:34:02.866Z,13.28
2019-05-07T14:37:23.701Z,13.31
2019-05-07T14:40:29.443Z,13.28
2019-05-07T14:43:49.473Z,13.28
2019-05-07T14:46:57.081Z,13.30
2019-05-07T14:50:04.832Z,13.27
2019-05-07T14:53:24.453Z,13.34
2019-05-07T14:56:32.396Z,13.26
2019-05-07T14:59:39.850Z,13.18
2019-05-07T15:02:47.304Z,13.17
2019-05-07T15:05:53.900Z,13.17
2019-05-07T15:09:01.151Z,13.22
2019-05-07T15:12:11.448Z,13.24
2019-05-07T15:15:18.120Z,13.27
2019-05-07T15:18:55.135Z,13.36
2019-05-07T15:22:43.594Z,13.31
2019-05-07T15:25:39.429Z,13.32
2019-05-07T15:28:49.649Z,13.37
2019-05-07T15:32:09.624Z,13.41
2019-05-07T15:35:17.294Z,13.45
2019-05-07T15:38:24.558Z,13.49
2019-05-07T15:41:32.201Z,13.49
2019-05-07T15:44:39.477Z,13.50
2019-05-07T15:47:49.002Z,13.53
2019-05-07T15:50:56.614Z,13.56
2019-05-07T15:54:04.159Z,13.56
2019-05-07T15:57:14.101Z,13.57
2019-05-07T16:00:23.373Z,13.58
2019-05-07T16:03:35.398Z,13.58
2019-05-07T16:06:42.937Z,13.57
2019-05-07T16:10:01.934Z,13.62
2019-05-07T16:13:23.801Z,13.61
2019-05-07T16:16:33.188Z,13.58
2019-05-07T16:19:42.518Z,13.57
2019-05-07T16:22:55.121Z,13.51
2019-05-07T16:26:02.402Z,13.45
2019-05-07T16:29:22.370Z,13.39
2019-05-07T16:32:38.605Z,13.30
2019-05-07T16:36:02.113Z,13.24
2019-05-07T16:39:11.889Z,13.13
2019-05-07T16:42:18.687Z,13.07
2019-05-07T16:45:24.420Z,13.01
2019-05-07T16:48:49.395Z,13.02
2019-05-07T16:52:06.019Z,12.94
2019-05-07T16:55:36.797Z,12.91
2019-05-07T16:58:48.176Z,12.80
2019-05-07T17:01:57.428Z,12.72
2019-05-07T17:05:12.475Z,12.65
2019-05-07T17:08:47.794Z,12.61
2019-05-07T17:11:55.303Z,12.49
2019-05-07T17:15:03.121Z,12.36
2019-05-07T17:18:21.714Z,12.35
2019-05-07T17:21:38.053Z,12.29
2019-05-07T17:24:54.723Z,12.20
2019-05-07T17:28:20.037Z,12.11
2019-05-07T17:31:27.400Z,12.01
2019-05-07T17:34:34.795Z,11.85
2019-05-07T17:37:42.171Z,11.76
2019-05-07T17:40:49.579Z,11.64
2019-05-07T17:43:55.543Z,11.61
2019-05-07T17:47:12.771Z,11.63
2019-05-07T17:50:23.005Z,11.55
2019-05-07T17:53:31.989Z,11.46
2019-05-07T17:56:39.551Z,11.42
2019-05-07T17:59:46.911Z,11.40
2019-05-07T18:03:13.900Z,11.29
2019-05-07T18:06:19.835Z,11.29
2019-05-07T18:09:27.375Z,11.29
2019-05-07T18:12:34.992Z,11.22
2019-05-07T18:15:42.806Z,11.16
2019-05-07T18:18:52.024Z,11.10
2019-05-07T18:21:59.398Z,10.99
2019-05-07T18:25:06.970Z,10.89
2019-05-07T18:28:16.097Z,10.78
2019-05-07T18:31:47.582Z,10.68
2019-05-07T18:34:54.428Z,10.54
2019-05-07T18:38:02.618Z,10.43
2019-05-07T18:41:12.209Z,10.38
2019-05-07T18:44:19.290Z,10.30
2019-05-07T18:47:36.085Z,10.22
2019-05-07T18:50:52.777Z,10.11
2019-05-07T18:54:26.904Z,10.01
2019-05-07T18:57:33.826Z,9.95
2019-05-07T19:00:45.233Z,9.81
2019-05-07T19:03:52.671Z,9.73
2019-05-07T19:06:58.886Z,9.64
2019-05-07T19:10:06.618Z,9.54
2019-05-07T19:13:14.182Z,9.48
2019-05-07T19:16:22.876Z,9.38
2019-05-07T19:19:38.421Z,9.30
2019-05-07T19:22:45.754Z,9.19
2019-05-07T19:26:02.609Z,9.14
2019-05-07T19:29:19.206Z,9.03
2019-05-07T19:32:35.984Z,8.94
2019-05-07T19:35:55.620Z,8.80
2019-05-07T19:39:12.701Z,8.72
2019-05-07T19:42:20.168Z,8.58
2019-05-07T19:45:27.674Z,8.49
2019-05-07T19:48:35.074Z,8.39
2019-05-07T19:51:42.885Z,8.29
2019-05-07T19:55:04.144Z,8.28
2019-05-07T19:58:08.943Z,8.16
2019-05-07T20:01:19.437Z,8.08
2019-05-07T20:04:26.979Z,8.00
2019-05-07T20:07:34.406Z,7.93
2019-05-07T20:10:48.162Z,7.83
2019-05-07T20:13:55.350Z,7.75
2019-05-07T20:17:02.787Z,7.68
2019-05-07T20:20:22.010Z,7.64
2019-05-07T20:23:28.996Z,7.53
2019-05-07T20:26:36.501Z,7.45
2019-05-07T20:29:43.907Z,7.38
2019-05-07T20:32:52.270Z,7.33
2019-05-07T20:35:58.099Z,7.27
2019-05-07T20:39:08.008Z,7.21
2019-05-07T20:42:15.579Z,7.15
2019-05-07T20:45:23.871Z,7.08
2019-05-07T20:48:32.474Z,7.00
2019-05-07T20:51:41.869Z,6.93
2019-05-07T20:54:54.371Z,6.89
2019-05-07T20:58:03.145Z,6.82
2019-05-07T21:01:12.443Z,6.78
2019-05-07T21:04:22.312Z,6.76
2019-05-07T21:07:29.228Z,6.70
2019-05-07T21:10:36.559Z,6.66
2019-05-07T21:13:44.628Z,6.62
2019-05-07T21:16:52.126Z,6.59
2019-05-07T21:19:59.503Z,6.55
2019-05-07T21:23:06.981Z,6.53
2019-05-07T21:26:14.441Z,6.51
2019-05-07T21:29:21.867Z,6.51
2019-05-07T21:32:38.633Z,6.53
2019-05-07T21:35:55.441Z,6.47
2019-05-07T21:39:13.440Z,6.46
2019-05-07T21:42:22.911Z,6.39
2019-05-07T21:45:42.320Z,6.51
2019-05-07T21:48:58.832Z,6.43
2019-05-07T21:52:06.088Z,6.35
2019-05-07T21:55:32.534Z,6.33
2019-05-07T21:59:25.353Z,6.36
2019-05-07T22:02:32.850Z,6.30
2019-05-07T22:05:39.384Z,6.35
2019-05-07T22:08:47.036Z,6.28
2019-05-07T22:11:54.522Z,6.28
2019-05-07T22:15:04.266Z,6.27
2019-05-07T22:18:22.509Z,6.35
2019-05-07T22:21:38.693Z,6.41
2019-05-07T22:24:55.382Z,6.35
2019-05-07T22:28:14.018Z,6.32
2019-05-07T22:31:53.919Z,6.32
2019-05-07T22:35:13.252Z,6.29
2019-05-07T22:38:41.273Z,6.50
2019-05-07T22:42:04.143Z,6.51
2019-05-07T22:45:22.697Z,6.58
2019-05-07T22:48:32.339Z,6.59
2019-05-07T22:51:39.415Z,6.57
2019-05-07T22:54:46.971Z,6.58
2019-05-07T22:58:16.262Z,6.54
2019-05-07T23:01:23.767Z,6.54
2019-05-07T23:04:32.539Z,6.35
2019-05-07T23:07:42.031Z,6.14
2019-05-07T23:10:49.513Z,6.32
2019-05-07T23:13:56.904Z,6.17
2019-05-07T23:17:04.359Z,6.09
2019-05-07T23:20:11.867Z,5.98
2019-05-07T23:23:28.753Z,5.99
2019-05-07T23:26:54.029Z,5.93
2019-05-07T23:30:02.592Z,5.89
2019-05-07T23:33:19.642Z,5.86
2019-05-07T23:36:36.223Z,5.79
2019-05-07T23:39:58.024Z,5.77
2019-05-07T23:43:06.858Z,5.69
2019-05-07T23:46:14.172Z,5.65
2019-05-07T23:49:24.615Z,5.59
2019-05-07T23:52:31.885Z,5.57
2019-05-07T23:55:39.307Z,5.53
2019-05-07T23:58:46.646Z,5.50
